Time;durP1;ratioP1;P1;durP2;ratioP2;P2;SDS_P1;SDS_P2;PMS_P1;PMS_P2;Temp;Humidity;BMP_temperature;BMP_pressure;BME280_temperature;BME280_humidity;BME280_pressure;Samples;Min_cycle;Max_cycle;Signal;HPM_P1;HPM_P2
2022/07/20 00:00:59;;;;;;;1.10;1.00;;;12.60;99.90;;;;;;4974694;28;20180;-67
2022/07/20 00:03:27;;;;;;;2.10;1.00;;;12.70;99.90;;;;;;4973577;28;20663;-68
2022/07/20 00:05:55;;;;;;;1.97;0.83;;;13.30;99.90;;;;;;4958494;28;20560;-68
2022/07/20 00:11:21;;;;;;;1.00;0.90;;;13.70;99.90;;;;;;4959771;28;20240;-68
2022/07/20 00:13:55;;;;;;;0.70;0.70;;;13.50;99.90;;;;;;4960688;28;20576;-67
2022/07/20 00:16:25;;;;;;;1.90;0.90;;;13.90;99.90;;;;;;4963592;28;20273;-68
2022/07/20 00:18:52;;;;;;;1.43;0.93;;;14.10;99.90;;;;;;4964401;28;20183;-68
2022/07/20 00:21:20;;;;;;;0.70;0.70;;;14.20;99.90;;;;;;4959639;28;20203;-69
2022/07/20 00:23:48;;;;;;;1.17;1.07;;;14.10;99.90;;;;;;4962852;28;20219;-69
2022/07/20 00:26:16;;;;;;;2.87;1.00;;;14.10;99.90;;;;;;4961581;28;20222;-69
2022/07/20 00:28:44;;;;;;;0.77;0.77;;;14.30;99.90;;;;;;4971338;28;20198;-66
2022/07/20 00:31:11;;;;;;;1.73;0.90;;;14.40;99.90;;;;;;4955398;28;20197;-67
2022/07/20 00:33:39;;;;;;;1.30;1.00;;;14.30;99.90;;;;;;4954432;28;20691;-67
2022/07/20 00:36:07;;;;;;;2.60;1.13;;;14.20;99.90;;;;;;4963436;28;20968;-68
2022/07/20 00:38:35;;;;;;;0.63;0.60;;;14.40;99.90;;;;;;4957540;28;20198;-68
2022/07/20 00:41:03;;;;;;;2.43;0.90;;;14.50;99.90;;;;;;4954760;28;20290;-68
2022/07/20 00:43:57;;;;;;;1.40;0.90;;;14.70;99.90;;;;;;4966278;28;20244;-68
2022/07/20 00:46:30;;;;;;;1.67;1.10;;;14.80;99.90;;;;;;4972098;28;20228;-67
2022/07/20 00:48:58;;;;;;;2.03;0.90;;;15.10;99.90;;;;;;4954694;28;20230;-68
2022/07/20 00:51:27;;;;;;;2.90;1.00;;;15.70;99.90;;;;;;4954264;28;20190;-67
2022/07/20 00:53:55;;;;;;;4.70;1.80;;;16.30;99.90;;;;;;4954302;28;20216;-66
2022/07/20 00:56:23;;;;;;;10.13;1.73;;;16.90;99.90;;;;;;4973710;28;20187;-68
2022/07/20 00:58:51;;;;;;;2.23;1.00;;;16.60;99.90;;;;;;4954523;28;20268;-67
2022/07/20 01:01:19;;;;;;;1.20;0.80;;;16.40;99.90;;;;;;4957563;28;20187;-68
2022/07/20 01:03:47;;;;;;;2.83;1.27;;;16.50;99.90;;;;;;4972994;28;20665;-68
2022/07/20 01:06:14;;;;;;;1.50;0.93;;;16.50;99.90;;;;;;4973337;28;20951;-68
2022/07/20 01:08:42;;;;;;;0.90;0.80;;;16.20;99.90;;;;;;4961962;28;20179;-67
2022/07/20 01:11:10;;;;;;;0.80;0.80;;;16.20;99.90;;;;;;4971784;28;20271;-68
2022/07/20 01:13:38;;;;;;;1.17;0.60;;;16.40;99.90;;;;;;4961410;28;20741;-68
2022/07/20 01:16:06;;;;;;;1.43;0.80;;;16.40;99.90;;;;;;4954110;29;20194;-66
2022/07/20 01:18:33;;;;;;;2.47;0.93;;;16.30;99.90;;;;;;4968974;28;20653;-67
2022/07/20 01:21:03;;;;;;;1.17;0.70;;;16.40;99.90;;;;;;4972605;28;20669;-67
2022/07/20 01:23:31;;;;;;;2.43;1.33;;;16.70;99.90;;;;;;4964611;28;20195;-67
2022/07/20 01:25:59;;;;;;;2.10;0.80;;;16.60;99.90;;;;;;4959223;28;20184;-67
2022/07/20 01:28:29;;;;;;;1.20;0.83;;;16.60;99.90;;;;;;4962257;28;20184;-67
2022/07/20 01:30:57;;;;;;;2.80;1.63;;;17.30;99.90;;;;;;4965018;28;20637;-67
2022/07/20 01:33:25;;;;;;;3.63;0.83;;;18.30;99.90;;;;;;4958997;28;20293;-68
2022/07/20 01:35:52;;;;;;;1.53;0.70;;;18.20;99.90;;;;;;4953803;29;20192;-67
2022/07/20 01:38:20;;;;;;;2.73;0.83;;;17.60;99.90;;;;;;4954088;28;20660;-68
2022/07/20 01:40:49;;;;;;;2.07;0.57;;;17.30;99.90;;;;;;4954205;28;20233;-68
2022/07/20 01:43:16;;;;;;;2.73;1.00;;;17.30;99.90;;;;;;4954124;28;20600;-67
2022/07/20 01:45:44;;;;;;;0.87;0.70;;;17.50;99.90;;;;;;4953784;28;20213;-67
2022/07/20 01:48:12;;;;;;;0.63;0.50;;;17.30;99.90;;;;;;4966669;28;20273;-66
2022/07/20 01:50:39;;;;;;;0.60;0.57;;;17.20;99.90;;;;;;4954448;28;20184;-67
2022/07/20 01:53:08;;;;;;;2.77;0.90;;;16.70;99.90;;;;;;4953722;28;20188;-67
2022/07/20 01:55:35;;;;;;;3.30;0.80;;;16.50;99.90;;;;;;4953495;29;20282;-67
2022/07/20 01:58:03;;;;;;;1.03;0.67;;;16.20;99.90;;;;;;4953672;29;20262;-67
2022/07/20 02:00:31;;;;;;;1.23;0.70;;;16.00;99.90;;;;;;4953817;29;20184;-67
2022/07/20 02:02:58;;;;;;;0.93;0.70;;;15.90;99.90;;;;;;4958172;28;20608;-68
2022/07/20 02:05:25;;;;;;;1.03;0.80;;;15.80;99.90;;;;;;4972863;28;20184;-68
2022/07/20 02:07:53;;;;;;;5.47;1.00;;;15.70;99.90;;;;;;4971017;28;20659;-68
2022/07/20 02:10:20;;;;;;;1.03;0.80;;;15.60;99.90;;;;;;4972848;28;20198;-67
2022/07/20 02:12:47;;;;;;;2.03;0.80;;;15.30;99.90;;;;;;4972470;28;20183;-68
2022/07/20 02:16:14;;;;;;;0.83;0.83;;;15.30;99.90;;;;;;4972244;28;20636;-68
2022/07/20 02:18:07;;;;;;;2.17;0.90;;;15.30;99.90;;;;;;4964636;28;20215;-67
2022/07/20 02:20:35;;;;;;;1.17;0.70;;;15.40;99.90;;;;;;4954216;28;20195;-68
2022/07/20 02:23:05;;;;;;;1.70;0.80;;;15.50;99.90;;;;;;4957033;28;20281;-68
2022/07/20 02:25:33;;;;;;;0.90;0.80;;;15.70;99.90;;;;;;4957086;28;20634;-69
2022/07/20 02:28:00;;;;;;;0.70;0.70;;;16.00;99.90;;;;;;4962289;28;20179;-68
2022/07/20 02:30:27;;;;;;;1.43;0.80;;;16.10;99.90;;;;;;4975632;28;20179;-68
2022/07/20 02:32:54;;;;;;;1.27;0.67;;;16.20;99.90;;;;;;4976336;28;20213;-70
2022/07/20 02:35:22;;;;;;;1.83;0.80;;;16.00;99.90;;;;;;4976175;28;20285;-69
2022/07/20 02:37:50;;;;;;;1.90;0.73;;;16.00;99.90;;;;;;4975561;28;20246;-67
2022/07/20 02:40:17;;;;;;;1.30;0.73;;;16.00;99.90;;;;;;4976037;28;20254;-68
2022/07/20 02:42:45;;;;;;;1.20;0.57;;;16.00;99.90;;;;;;4963453;28;20187;-68
2022/07/20 02:45:12;;;;;;;2.90;1.00;;;15.90;99.90;;;;;;4956867;29;20180;-68
2022/07/20 02:47:44;;;;;;;1.20;0.73;;;15.80;99.90;;;;;;4958598;28;20184;-68
2022/07/20 02:50:12;;;;;;;1.33;0.83;;;15.80;99.90;;;;;;4975982;28;20179;-67
2022/07/20 02:52:41;;;;;;;1.70;0.93;;;15.70;99.90;;;;;;4976006;28;20175;-69
2022/07/20 02:55:09;;;;;;;1.33;1.00;;;15.60;99.90;;;;;;4975469;28;20211;-68
2022/07/20 02:57:37;;;;;;;1.90;1.00;;;15.60;99.90;;;;;;4974034;28;20290;-68
2022/07/20 03:00:07;;;;;;;4.30;1.07;;;15.50;99.90;;;;;;4956576;28;20179;-67
2022/07/20 03:02:34;;;;;;;2.27;0.90;;;15.30;99.90;;;;;;4955075;29;20184;-68
2022/07/20 03:05:02;;;;;;;2.83;0.90;;;15.30;99.90;;;;;;4958116;28;20183;-67
2022/07/20 03:07:30;;;;;;;3.43;0.90;;;15.20;99.90;;;;;;4971671;28;20191;-68
2022/07/20 03:09:57;;;;;;;2.77;0.90;;;15.00;99.90;;;;;;4975121;28;20215;-68
2022/07/20 03:12:25;;;;;;;2.37;0.87;;;15.00;99.90;;;;;;4963656;28;20183;-68
2022/07/20 03:14:52;;;;;;;2.07;0.90;;;15.00;99.90;;;;;;4968590;28;20219;-68
2022/07/20 03:17:19;;;;;;;2.40;0.90;;;15.20;99.90;;;;;;4956201;29;20179;-68
2022/07/20 03:19:47;;;;;;;1.80;0.90;;;15.50;99.90;;;;;;4974084;28;20182;-69
2022/07/20 03:22:14;;;;;;;1.30;1.00;;;15.40;99.90;;;;;;4975350;28;20186;-69
2022/07/20 03:24:42;;;;;;;1.90;0.87;;;15.30;99.90;;;;;;4973795;28;20180;-67
2022/07/20 03:27:09;;;;;;;1.50;0.90;;;15.30;99.90;;;;;;4956046;28;20196;-67
2022/07/20 03:29:37;;;;;;;1.10;0.80;;;15.50;99.90;;;;;;4972318;28;20202;-68
2022/07/20 03:32:05;;;;;;;2.33;0.93;;;15.50;99.90;;;;;;4974243;28;20225;-67
2022/07/20 03:34:33;;;;;;;1.20;1.10;;;15.50;99.90;;;;;;4971522;28;20224;-67
2022/07/20 03:37:00;;;;;;;1.80;1.00;;;15.90;99.90;;;;;;4956001;28;20191;-67
2022/07/20 03:39:28;;;;;;;1.00;0.57;;;16.50;99.90;;;;;;4970666;28;20238;-67
2022/07/20 03:41:55;;;;;;;4.73;2.80;;;17.00;99.90;;;;;;4961456;28;20184;-67
2022/07/20 03:44:22;;;;;;;4.23;2.77;;;17.70;99.90;;;;;;4955560;29;20198;-66
2022/07/20 03:46:50;;;;;;;2.90;2.03;;;17.80;99.90;;;;;;4973139;28;20234;-67
2022/07/20 03:49:17;;;;;;;2.70;1.50;;;17.80;99.90;;;;;;4960932;28;20184;-67
2022/07/20 03:51:44;;;;;;;6.03;2.37;;;17.70;99.90;;;;;;4955370;29;20191;-67
2022/07/20 03:54:12;;;;;;;1.53;0.83;;;17.70;99.90;;;;;;4967898;28;20241;-66
2022/07/20 03:56:42;;;;;;;1.93;1.07;;;17.50;99.90;;;;;;4974827;28;20997;-66
2022/07/20 03:59:11;;;;;;;0.73;0.70;;;17.60;99.90;;;;;;4962132;28;20567;-67
2022/07/20 04:01:39;;;;;;;1.20;1.00;;;17.70;99.90;;;;;;4957909;28;20184;-66
2022/07/20 04:04:07;;;;;;;1.07;0.70;;;17.20;99.90;;;;;;4962593;28;20196;-67
2022/07/20 04:06:35;;;;;;;0.90;0.70;;;16.70;99.90;;;;;;4955341;28;20192;-68
2022/07/20 04:09:03;;;;;;;0.63;0.53;;;16.40;99.90;;;;;;4954002;29;20294;-68
2022/07/20 04:11:30;;;;;;;2.83;0.87;;;16.10;99.90;;;;;;4954995;29;20182;-67
2022/07/20 04:13:57;;;;;;;6.87;0.70;;;15.90;99.90;;;;;;4956107;28;20219;-66
2022/07/20 04:16:25;;;;;;;1.63;0.80;;;15.80;99.90;;;;;;4972933;28;20183;-66
2022/07/20 04:18:52;;;;;;;1.80;1.00;;;15.60;99.90;;;;;;4974444;28;20202;-67
2022/07/20 04:21:19;;;;;;;2.63;1.10;;;15.30;99.90;;;;;;4967064;28;20192;-67
2022/07/20 04:23:47;;;;;;;1.40;1.00;;;14.90;99.90;;;;;;4973028;28;20186;-65
2022/07/20 04:26:14;;;;;;;0.97;0.90;;;14.40;99.90;;;;;;4973962;28;20594;-66
2022/07/20 04:28:41;;;;;;;1.43;1.20;;;14.40;99.90;;;;;;4969846;28;20184;-67
2022/07/20 04:31:09;;;;;;;1.27;1.00;;;14.20;99.90;;;;;;4962065;28;20252;-66
2022/07/20 04:33:36;;;;;;;1.57;1.27;;;13.90;99.90;;;;;;4965584;28;20305;-66
2022/07/20 04:36:04;;;;;;;0.73;0.73;;;13.70;99.90;;;;;;4969738;28;20188;-67
2022/07/20 04:38:31;;;;;;;2.50;1.40;;;13.60;99.90;;;;;;4954601;29;20186;-67
2022/07/20 04:40:58;;;;;;;1.20;1.10;;;13.50;99.90;;;;;;4954570;29;20195;-68
2022/07/20 04:43:29;;;;;;;2.03;1.20;;;13.50;99.90;;;;;;4964219;28;20194;-68
2022/07/20 04:45:56;;;;;;;2.50;1.60;;;13.60;99.90;;;;;;4953505;28;20685;-68
2022/07/20 04:48:23;;;;;;;1.80;1.43;;;13.60;99.90;;;;;;4973890;28;20209;-68
2022/07/20 04:50:50;;;;;;;2.10;1.60;;;13.70;99.90;;;;;;4955945;28;20184;-68
2022/07/20 04:53:18;;;;;;;1.53;1.43;;;13.80;99.90;;;;;;4957920;28;20190;-68
2022/07/20 04:55:45;;;;;;;1.83;1.47;;;13.80;99.90;;;;;;4973533;28;20189;-67
2022/07/20 04:58:13;;;;;;;1.50;1.40;;;13.70;99.90;;;;;;4965525;28;20659;-68
2022/07/20 05:00:41;;;;;;;2.50;1.20;;;13.70;99.90;;;;;;4954340;29;20237;-68
2022/07/20 05:03:08;;;;;;;2.77;1.30;;;13.70;99.90;;;;;;4954175;28;20183;-64
2022/07/20 05:05:36;;;;;;;1.93;1.27;;;13.70;99.90;;;;;;4954201;29;20242;-69
2022/07/20 05:08:03;;;;;;;3.13;1.30;;;13.70;99.90;;;;;;4954179;28;20210;-69
2022/07/20 05:10:31;;;;;;;1.97;1.43;;;13.60;99.90;;;;;;4953944;28;20192;-68
2022/07/20 05:12:59;;;;;;;2.03;1.60;;;13.70;99.90;;;;;;4963430;28;20279;-69
2022/07/20 05:15:26;;;;;;;3.23;1.60;;;13.80;99.90;;;;;;4973199;28;20221;-68
2022/07/20 05:17:54;;;;;;;2.87;1.70;;;13.90;99.90;;;;;;4970522;28;20266;-67
2022/07/20 05:20:21;;;;;;;3.13;1.93;;;13.90;99.90;;;;;;4953999;29;20649;-68
2022/07/20 05:22:48;;;;;;;1.47;1.37;;;13.90;99.90;;;;;;4962553;28;20756;-68
2022/07/20 05:25:16;;;;;;;1.57;1.47;;;13.90;99.90;;;;;;4973271;28;20185;-68
2022/07/20 05:27:43;;;;;;;2.60;1.27;;;14.00;99.90;;;;;;4965963;28;20195;-68
2022/07/20 05:30:11;;;;;;;4.70;3.70;;;13.90;99.90;;;;;;4954385;28;20191;-68
2022/07/20 05:32:38;;;;;;;2.37;1.90;;;13.90;99.90;;;;;;4958101;28;20266;-69
2022/07/20 05:35:08;;;;;;;4.83;1.87;;;13.90;99.90;;;;;;4973077;28;20215;-69
2022/07/20 05:37:36;;;;;;;1.60;1.50;;;13.90;99.90;;;;;;4967114;28;20304;-67
2022/07/20 05:40:03;;;;;;;1.20;1.10;;;13.90;99.90;;;;;;4954268;28;20234;-68
2022/07/20 05:42:33;;;;;;;1.90;1.00;;;13.80;99.90;;;;;;4969496;28;20265;-67
2022/07/20 05:45:01;;;;;;;1.83;1.23;;;13.90;99.90;;;;;;4954034;28;20637;-68
2022/07/20 05:47:28;;;;;;;4.23;1.70;;;13.90;99.90;;;;;;4960656;28;20261;-69
2022/07/20 05:49:57;;;;;;;3.23;1.63;;;14.00;99.90;;;;;;4953721;29;20278;-68
2022/07/20 05:52:24;;;;;;;2.20;1.50;;;14.00;99.90;;;;;;4955650;28;20585;-68
2022/07/20 05:54:52;;;;;;;2.23;1.33;;;13.90;99.90;;;;;;4973128;28;20270;-68
2022/07/20 05:57:20;;;;;;;2.57;1.50;;;13.90;99.90;;;;;;4975294;28;20182;-69
2022/07/20 05:59:47;;;;;;;3.70;1.50;;;14.00;99.90;;;;;;4976955;28;20276;-68
2022/07/20 06:02:14;;;;;;;2.60;1.40;;;13.90;99.90;;;;;;4975174;28;20627;-68
2022/07/20 06:04:42;;;;;;;3.37;1.67;;;13.90;99.90;;;;;;4976829;28;20712;-68
2022/07/20 06:07:09;;;;;;;3.33;1.97;;;13.90;99.90;;;;;;4976756;28;20203;-68
2022/07/20 06:09:36;;;;;;;2.20;1.50;;;13.90;99.90;;;;;;4958202;28;20579;-67
2022/07/20 06:12:04;;;;;;;3.13;1.20;;;13.90;99.90;;;;;;4962273;28;20644;-68
2022/07/20 06:14:31;;;;;;;3.37;1.23;;;13.90;99.90;;;;;;4976617;28;20249;-68
2022/07/20 06:17:00;;;;;;;1.57;1.20;;;13.90;99.90;;;;;;4976683;28;20686;-68
2022/07/20 06:19:27;;;;;;;1.40;1.10;;;13.80;99.90;;;;;;4973193;28;20608;-69
2022/07/20 06:21:55;;;;;;;1.47;1.30;;;13.70;99.90;;;;;;4960552;28;20710;-67
2022/07/20 06:24:22;;;;;;;2.70;1.53;;;13.60;99.90;;;;;;4976430;28;20208;-68
2022/07/20 06:26:49;;;;;;;2.07;1.30;;;13.60;99.90;;;;;;4959220;28;20206;-68
2022/07/20 06:29:16;;;;;;;2.47;1.43;;;13.50;99.90;;;;;;4974404;28;20229;-68
2022/07/20 06:31:44;;;;;;;3.27;1.57;;;13.40;99.90;;;;;;4965678;28;20726;-68
2022/07/20 06:34:11;;;;;;;0.97;0.97;;;13.40;99.90;;;;;;4975858;28;20225;-68
2022/07/20 06:36:39;;;;;;;2.37;1.37;;;13.30;99.90;;;;;;4975125;28;20237;-67
2022/07/20 06:39:06;;;;;;;2.43;1.50;;;13.30;99.90;;;;;;4976019;28;20235;-68
2022/07/20 06:41:33;;;;;;;1.93;1.20;;;13.30;99.90;;;;;;4966987;28;20664;-68
2022/07/20 06:44:01;;;;;;;1.33;1.23;;;13.20;99.90;;;;;;4956782;29;20179;-68
2022/07/20 06:46:28;;;;;;;3.13;1.40;;;13.20;99.90;;;;;;4956730;29;20680;-68
2022/07/20 06:48:55;;;;;;;1.97;1.43;;;13.10;99.90;;;;;;4966527;28;20726;-69
2022/07/20 06:51:24;;;;;;;4.87;1.50;;;13.10;99.90;;;;;;4961928;28;20212;-67
2022/07/20 06:53:51;;;;;;;3.47;2.00;;;13.10;99.90;;;;;;4963610;28;20230;-68
2022/07/20 06:56:19;;;;;;;2.63;2.00;;;13.10;99.90;;;;;;4975755;28;20182;-68
2022/07/20 06:58:46;;;;;;;1.93;1.63;;;13.10;99.90;;;;;;4966414;28;20562;-67
2022/07/20 07:01:13;;;;;;;2.40;2.03;;;13.00;99.90;;;;;;4956526;29;20179;-68
2022/07/20 07:03:41;;;;;;;3.53;2.57;;;12.90;99.90;;;;;;4958684;28;20645;-68
2022/07/20 07:06:08;;;;;;;2.43;2.10;;;12.90;99.90;;;;;;4975610;28;20957;-67
2022/07/20 07:08:36;;;;;;;4.10;2.10;;;12.90;99.90;;;;;;4975598;28;20181;-68
2022/07/20 07:11:03;;;;;;;4.93;2.50;;;12.80;99.90;;;;;;4975523;28;20781;-68
2022/07/20 07:13:30;;;;;;;4.17;2.67;;;12.70;99.90;;;;;;4975291;28;20175;-68
2022/07/20 07:15:58;;;;;;;5.00;4.00;;;12.70;99.90;;;;;;4972083;28;20294;-68
2022/07/20 07:18:25;;;;;;;5.93;4.40;;;12.70;99.90;;;;;;4954848;29;20649;-68
2022/07/20 07:20:52;;;;;;;5.67;3.63;;;12.70;99.90;;;;;;4956189;29;20175;-67
2022/07/20 07:23:20;;;;;;;5.57;2.47;;;12.70;99.90;;;;;;4956029;29;20179;-68
2022/07/20 07:25:47;;;;;;;5.40;3.37;;;12.70;99.90;;;;;;4955872;29;20202;-68
2022/07/20 07:28:15;;;;;;;5.20;2.90;;;12.70;99.90;;;;;;4956061;28;20180;-70
2022/07/20 07:30:43;;;;;;;5.43;2.73;;;12.60;99.90;;;;;;4955874;28;20187;-68
2022/07/20 07:33:10;;;;;;;9.67;2.37;;;12.60;99.90;;;;;;4955872;28;20178;-69
2022/07/20 07:35:37;;;;;;;2.90;2.07;;;12.60;99.90;;;;;;4963734;28;20264;-68
2022/07/20 07:38:05;;;;;;;3.83;1.90;;;12.60;99.90;;;;;;4968192;28;20210;-69
2022/07/20 07:40:32;;;;;;;2.97;1.77;;;12.60;99.90;;;;;;4972043;28;20229;-67
2022/07/20 07:42:59;;;;;;;2.37;1.73;;;12.70;99.90;;;;;;4955757;29;20624;-68
2022/07/20 07:45:27;;;;;;;2.70;2.17;;;12.60;99.90;;;;;;4955603;29;20179;-67
2022/07/20 07:47:54;;;;;;;3.77;2.37;;;12.60;99.90;;;;;;4955733;29;20186;-68
2022/07/20 07:50:22;;;;;;;5.33;2.13;;;12.60;99.90;;;;;;4956236;28;20246;-68
2022/07/20 07:52:49;;;;;;;6.63;2.20;;;12.60;99.90;;;;;;4974904;28;20556;-68
2022/07/20 07:55:16;;;;;;;3.83;2.00;;;12.50;99.90;;;;;;4972235;28;20309;-68
2022/07/20 07:57:44;;;;;;;12.23;2.93;;;12.60;99.90;;;;;;4955480;29;20185;-68
2022/07/20 08:00:11;;;;;;;3.60;2.03;;;12.50;99.90;;;;;;4955477;29;20206;-67
2022/07/20 08:02:39;;;;;;;3.87;1.93;;;12.50;99.90;;;;;;4955611;28;20225;-68
2022/07/20 08:05:06;;;;;;;3.00;2.10;;;12.40;99.90;;;;;;4955453;28;20201;-67
2022/07/20 08:07:36;;;;;;;4.67;2.30;;;12.40;99.90;;;;;;4974209;28;20188;-68
2022/07/20 08:10:05;;;;;;;2.87;2.20;;;12.40;99.90;;;;;;4974416;28;20292;-68
2022/07/20 08:12:32;;;;;;;4.70;2.47;;;12.40;99.90;;;;;;4974603;28;20224;-69
2022/07/20 08:14:59;;;;;;;5.40;2.40;;;12.30;99.90;;;;;;4974915;28;20220;-69
2022/07/20 08:17:27;;;;;;;2.93;2.17;;;12.30;99.90;;;;;;4955495;28;20186;-67
2022/07/20 08:19:54;;;;;;;2.97;1.80;;;12.20;99.90;;;;;;4954898;28;20193;-68
2022/07/20 08:22:21;;;;;;;3.77;1.80;;;12.20;99.90;;;;;;4955043;29;20654;-68
2022/07/20 08:24:49;;;;;;;3.57;1.70;;;12.10;99.90;;;;;;4955400;28;20528;-67
2022/07/20 08:27:16;;;;;;;1.97;1.73;;;12.10;99.90;;;;;;4974439;28;20211;-68
2022/07/20 08:29:45;;;;;;;12.70;5.80;;;12.00;99.90;;;;;;4956334;28;20203;-69
2022/07/20 08:32:12;;;;;;;4.10;2.20;;;12.00;99.90;;;;;;4954773;28;20200;-69
2022/07/20 08:34:40;;;;;;;3.43;2.27;;;12.00;99.90;;;;;;4954818;28;20687;-69
2022/07/20 08:37:07;;;;;;;2.93;2.40;;;12.00;99.90;;;;;;4954736;28;20544;-68
2022/07/20 08:39:34;;;;;;;5.13;2.83;;;12.00;99.90;;;;;;4954659;29;20234;-68
2022/07/20 08:42:02;;;;;;;3.30;2.30;;;11.90;99.90;;;;;;4954511;28;20235;-68
2022/07/20 08:44:30;;;;;;;6.37;2.47;;;11.90;99.90;;;;;;4954667;29;20651;-68
2022/07/20 08:46:57;;;;;;;3.70;2.27;;;11.90;99.90;;;;;;4954649;29;20176;-68
2022/07/20 08:49:26;;;;;;;4.37;2.23;;;11.90;99.90;;;;;;4972422;28;20212;-68
2022/07/20 08:51:54;;;;;;;5.30;2.50;;;11.90;99.90;;;;;;4973870;28;20183;-68
2022/07/20 08:54:21;;;;;;;8.47;4.17;;;11.90;99.90;;;;;;4973654;28;20207;-68
2022/07/20 08:56:49;;;;;;;21.37;13.07;;;12.00;99.90;;;;;;4954870;28;20278;-67
2022/07/20 08:59:16;;;;;;;13.33;7.43;;;11.90;99.90;;;;;;4954312;29;20597;-67
2022/07/20 09:02:00;;;;;;;7.60;4.30;;;11.90;99.90;;;;;;4963301;28;20284;-67
2022/07/20 09:04:28;;;;;;;4.63;3.70;;;11.90;99.90;;;;;;4963396;28;20183;-67
2022/07/20 09:06:56;;;;;;;14.60;8.10;;;11.80;99.90;;;;;;4973628;28;20189;-68
2022/07/20 09:09:23;;;;;;;13.60;7.63;;;11.80;99.90;;;;;;4957426;28;20630;-68
2022/07/20 09:11:51;;;;;;;20.00;10.20;;;11.80;99.90;;;;;;4965121;28;20195;-67
2022/07/20 09:14:47;;;;;;;12.50;8.60;;;11.80;99.90;;;;;;4973427;28;20731;-66
2022/07/20 09:17:20;;;;;;;9.23;5.00;;;11.80;99.90;;;;;;4973554;28;20187;-67
2022/07/20 09:20:00;;;;;;;8.80;5.73;;;11.80;99.90;;;;;;4971251;28;20201;-67
2022/07/20 09:22:47;;;;;;;5.50;3.83;;;11.80;99.90;;;;;;4954083;28;20667;-68
2022/07/20 09:25:16;;;;;;;3.67;3.00;;;11.90;99.90;;;;;;4965798;28;20205;-68
2022/07/20 09:27:43;;;;;;;4.77;3.00;;;11.90;99.90;;;;;;4953536;28;20200;-67
2022/07/20 09:30:14;;;;;;;6.93;3.00;;;11.90;99.90;;;;;;4969183;28;20682;-68
2022/07/20 09:33:02;;;;;;;5.77;3.30;;;11.90;99.90;;;;;;4972682;28;20184;-68
2022/07/20 09:35:35;;;;;;;5.10;2.80;;;11.90;99.90;;;;;;4973192;28;20327;-68
2022/07/20 09:38:06;;;;;;;4.57;2.77;;;11.90;99.90;;;;;;4961747;28;20192;-67
2022/07/20 09:40:43;;;;;;;4.33;3.33;;;12.00;99.90;;;;;;4953875;28;20244;-69
2022/07/20 09:43:26;;;;;;;5.67;3.73;;;12.00;99.90;;;;;;4954029;29;20529;-69
2022/07/20 09:45:54;;;;;;;5.80;3.70;;;12.00;99.90;;;;;;4954077;28;20561;-68
2022/07/20 09:48:24;;;;;;;8.57;3.63;;;12.00;99.90;;;;;;4965672;28;20677;-68
2022/07/20 09:50:52;;;;;;;6.27;3.10;;;11.90;99.90;;;;;;4954804;28;20213;-68
2022/07/20 09:53:19;;;;;;;4.03;2.93;;;11.90;99.90;;;;;;4954907;28;20239;-68
2022/07/20 09:55:49;;;;;;;5.43;3.57;;;11.90;99.90;;;;;;4954860;29;20228;-68
2022/07/20 09:58:18;;;;;;;6.00;3.57;;;11.90;99.90;;;;;;4967435;28;20188;-69
2022/07/20 10:00:46;;;;;;;7.60;3.73;;;11.80;99.90;;;;;;4974075;28;20666;-67
2022/07/20 10:03:14;;;;;;;5.10;3.00;;;11.80;99.90;;;;;;4974279;28;20193;-68
2022/07/20 10:05:42;;;;;;;3.73;3.10;;;11.80;99.90;;;;;;4958775;28;20569;-68
2022/07/20 10:08:10;;;;;;;4.50;3.00;;;11.80;99.90;;;;;;4953754;29;20185;-67
2022/07/20 10:10:37;;;;;;;7.03;3.60;;;11.70;99.90;;;;;;4970786;28;20190;-68
2022/07/20 10:13:05;;;;;;;4.97;3.67;;;11.70;99.90;;;;;;4974087;28;20188;-69
2022/07/20 10:15:52;;;;;;;6.73;3.57;;;11.60;99.90;;;;;;4974015;28;20220;-69
2022/07/20 10:18:20;;;;;;;6.53;3.97;;;11.50;99.90;;;;;;4973045;28;20179;-69
2022/07/20 10:20:49;;;;;;;5.60;3.67;;;11.50;99.90;;;;;;4954691;28;20285;-69
2022/07/20 10:23:16;;;;;;;5.60;3.73;;;11.40;99.90;;;;;;4954594;29;20215;-69
2022/07/20 10:25:45;;;;;;;8.30;3.70;;;11.50;99.90;;;;;;4954761;29;20191;-67
2022/07/20 10:28:24;;;;;;;8.27;5.40;;;11.40;99.90;;;;;;4955023;28;20301;-67
2022/07/20 10:30:57;;;;;;;7.10;6.10;;;11.40;99.90;;;;;;4959455;28;20554;-68
2022/07/20 10:33:26;;;;;;;7.77;6.30;;;11.40;99.90;;;;;;4973508;28;20189;-68
2022/07/20 10:38:44;;;;;;;4.83;4.23;;;11.30;99.90;;;;;;4972450;28;20201;-68
2022/07/20 10:44:22;;;;;;;6.30;4.20;;;11.30;99.90;;;;;;4958506;29;20214;-68
2022/07/20 10:46:50;;;;;;;6.47;4.20;;;11.30;99.90;;;;;;4962947;28;20672;-68
2022/07/20 10:49:17;;;;;;;4.87;4.30;;;11.30;99.90;;;;;;4967492;28;20210;-67
2022/07/20 10:52:04;;;;;;;8.03;4.47;;;11.30;99.90;;;;;;4966179;28;20176;-68
2022/07/20 10:54:32;;;;;;;5.87;4.47;;;11.30;99.90;;;;;;4964413;28;20576;-69
2022/07/20 10:57:00;;;;;;;3.97;3.53;;;11.30;99.90;;;;;;4965937;28;20185;-67
2022/07/20 10:59:28;;;;;;;5.70;4.47;;;11.20;99.90;;;;;;4967284;28;20325;-66
2022/07/20 11:01:56;;;;;;;7.17;4.07;;;11.20;99.90;;;;;;4963753;28;20189;-68
2022/07/20 11:04:23;;;;;;;6.07;3.80;;;11.30;99.90;;;;;;4966918;28;20188;-67
2022/07/20 11:06:51;;;;;;;6.60;4.43;;;11.30;99.90;;;;;;4971113;28;20188;-69
2022/07/20 11:09:18;;;;;;;5.93;4.67;;;11.20;99.90;;;;;;4967421;28;20188;-68
2022/07/20 11:11:45;;;;;;;5.50;4.83;;;11.30;99.90;;;;;;4957463;29;20527;-69
2022/07/20 11:14:14;;;;;;;9.57;5.00;;;11.30;99.90;;;;;;4963628;28;20214;-69
2022/07/20 11:16:42;;;;;;;5.27;4.20;;;11.20;99.90;;;;;;4957259;28;20195;-67
2022/07/20 11:19:09;;;;;;;6.13;4.53;;;11.30;99.90;;;;;;4963805;28;20193;-68
2022/07/20 11:21:43;;;;;;;6.33;4.17;;;11.30;99.90;;;;;;4967147;28;20186;-68
2022/07/20 11:24:29;;;;;;;5.67;3.67;;;11.40;99.90;;;;;;4966201;28;20215;-67
2022/07/20 11:26:57;;;;;;;6.30;3.90;;;11.40;99.90;;;;;;4964853;28;20211;-68
2022/07/20 11:29:27;;;;;;;6.43;3.80;;;11.40;99.90;;;;;;4961954;28;20243;-68
2022/07/20 11:31:54;;;;;;;5.20;4.13;;;11.40;99.90;;;;;;4957167;28;20189;-67
2022/07/20 11:34:21;;;;;;;5.53;4.43;;;11.50;99.90;;;;;;4957236;28;20582;-68
2022/07/20 11:36:49;;;;;;;4.17;3.73;;;11.50;99.90;;;;;;4956991;29;20178;-67
2022/07/20 11:39:18;;;;;;;5.43;4.50;;;11.50;99.90;;;;;;4959923;28;20303;-68
2022/07/20 11:41:45;;;;;;;4.17;3.50;;;11.50;99.90;;;;;;4968092;28;20195;-66
2022/07/20 11:44:20;;;;;;;4.57;3.17;;;11.50;99.90;;;;;;4961915;28;20181;-68
2022/07/20 11:46:48;;;;;;;6.27;3.20;;;11.50;99.90;;;;;;4956828;28;20185;-67
2022/07/20 11:49:18;;;;;;;5.90;3.47;;;11.50;99.90;;;;;;4956910;28;20197;-70
2022/07/20 11:51:55;;;;;;;6.93;3.80;;;11.50;99.90;;;;;;4956634;28;20189;-69
2022/07/20 11:54:24;;;;;;;3.97;3.53;;;11.50;99.90;;;;;;4956116;28;20215;-68
2022/07/20 11:56:53;;;;;;;3.37;2.93;;;11.50;99.90;;;;;;4956854;28;20182;-70
2022/07/20 11:59:21;;;;;;;7.10;3.30;;;11.60;99.90;;;;;;4965923;28;20189;-68
2022/07/20 12:01:53;;;;;;;5.73;3.57;;;11.60;99.90;;;;;;4966664;28;20184;-68
2022/07/20 12:04:21;;;;;;;5.20;3.50;;;11.60;99.90;;;;;;4956735;28;20703;-68
2022/07/20 12:06:51;;;;;;;3.87;3.33;;;11.60;99.90;;;;;;4956701;28;20268;-68
2022/07/20 12:09:21;;;;;;;4.07;3.40;;;11.60;99.90;;;;;;4956755;29;20270;-69
2022/07/20 12:12:06;;;;;;;3.73;2.90;;;11.50;99.90;;;;;;4956660;29;20323;-68
2022/07/20 12:14:42;;;;;;;5.33;3.50;;;11.50;99.90;;;;;;4964394;28;20214;-69
2022/07/20 12:17:24;;;;;;;4.53;3.30;;;11.40;99.90;;;;;;4956423;28;20197;-70
2022/07/20 12:19:53;;;;;;;4.57;3.10;;;11.50;99.90;;;;;;4956398;28;20240;-70
2022/07/20 12:22:23;;;;;;;5.23;3.80;;;11.50;99.90;;;;;;4956827;28;20277;-68
2022/07/20 12:25:00;;;;;;;3.87;3.47;;;11.50;99.90;;;;;;4957942;28;20192;-68
2022/07/20 12:27:30;;;;;;;4.87;3.50;;;11.50;99.90;;;;;;4970556;28;20181;-68
2022/07/20 12:29:58;;;;;;;5.40;3.67;;;11.40;99.90;;;;;;4965798;28;20227;-70
2022/07/20 12:32:36;;;;;;;5.57;4.07;;;11.40;99.90;;;;;;4963008;28;20544;-68
2022/07/20 12:35:06;;;;;;;5.10;3.63;;;11.50;99.90;;;;;;4956238;29;20320;-68
2022/07/20 12:37:56;;;;;;;4.20;3.47;;;11.50;99.90;;;;;;4955973;29;20590;-69
2022/07/20 12:40:47;;;;;;;5.30;3.70;;;11.50;99.90;;;;;;4964934;28;20245;-68
2022/07/20 12:43:47;;;;;;;5.60;3.73;;;11.40;99.90;;;;;;4962242;28;20263;-69
2022/07/20 12:46:15;;;;;;;7.73;4.40;;;11.40;99.90;;;;;;4961732;28;20222;-68
2022/07/20 12:48:50;;;;;;;9.53;6.27;;;11.40;99.90;;;;;;4970226;28;20198;-68
2022/07/20 12:51:19;;;;;;;10.23;5.93;;;11.30;99.90;;;;;;4962906;28;20190;-67
2022/07/20 12:53:51;;;;;;;7.10;4.43;;;11.30;99.90;;;;;;4966797;28;20187;-68
2022/07/20 12:56:18;;;;;;;6.40;3.87;;;11.20;99.90;;;;;;4964356;28;20275;-68
2022/07/20 12:58:46;;;;;;;5.90;3.67;;;11.20;99.90;;;;;;4955668;29;20255;-67
2022/07/20 13:01:15;;;;;;;4.30;3.20;;;11.20;99.90;;;;;;4955654;29;20689;-68
2022/07/20 13:03:42;;;;;;;6.13;3.10;;;11.10;99.90;;;;;;4955407;28;20705;-68